sensor_id;sensor_type;location;lat;lon;timestamp;temperature;humidity
23081;DHT22;72373;50.562;8.498;2023-11-18T00:00:27;1.40;99.90
23081;DHT22;72373;50.562;8.498;2023-11-18T00:02:52;1.50;99.90
23081;DHT22;72373;50.562;8.498;2023-11-18T00:05:18;1.50;99.90
23081;DHT22;72373;50.562;8.498;2023-11-18T00:07:44;1.50;99.90
23081;DHT22;72373;50.562;8.498;2023-11-18T00:10:10;1.50;99.90
23081;DHT22;72373;50.562;8.498;2023-11-18T00:12:36;1.50;99.90
23081;DHT22;72373;50.562;8.498;2023-11-18T00:15:03;1.50;99.90
23081;DHT22;72373;50.562;8.498;2023-11-18T00:17:32;1.30;99.90
23081;DHT22;72373;50.562;8.498;2023-11-18T00:19:58;1.50;99.90
23081;DHT22;72373;50.562;8.498;2023-11-18T00:22:23;1.50;99.90
23081;DHT22;72373;50.562;8.498;2023-11-18T00:24:49;1.40;99.90
23081;DHT22;72373;50.562;8.498;2023-11-18T00:27:15;1.40;99.90
23081;DHT22;72373;50.562;8.498;2023-11-18T00:29:41;1.50;99.90
23081;DHT22;72373;50.562;8.498;2023-11-18T00:32:07;1.60;99.90
23081;DHT22;72373;50.562;8.498;2023-11-18T00:34:35;1.50;99.90
23081;DHT22;72373;50.562;8.498;2023-11-18T00:37:01;1.60;99.90
23081;DHT22;72373;50.562;8.498;2023-11-18T00:39:27;1.50;99.90
23081;DHT22;72373;50.562;8.498;2023-11-18T00:41:53;1.60;99.90
23081;DHT22;72373;50.562;8.498;2023-11-18T00:44:19;1.60;99.90
23081;DHT22;72373;50.562;8.498;2023-11-18T00:46:44;1.70;99.90
23081;DHT22;72373;50.562;8.498;2023-11-18T00:49:10;1.70;99.90
23081;DHT22;72373;50.562;8.498;2023-11-18T00:51:39;1.70;99.90
23081;DHT22;72373;50.562;8.498;2023-11-18T00:54:06;1.70;99.90
23081;DHT22;72373;50.562;8.498;2023-11-18T00:56:32;1.70;99.90
23081;DHT22;72373;50.562;8.498;2023-11-18T00:58:58;1.70;99.90
23081;DHT22;72373;50.562;8.498;2023-11-18T01:01:23;1.70;99.90
23081;DHT22;72373;50.562;8.498;2023-11-18T01:03:49;1.70;99.90
23081;DHT22;72373;50.562;8.498;2023-11-18T01:06:15;1.80;99.90
23081;DHT22;72373;50.562;8.498;2023-11-18T01:08:44;1.80;99.90
23081;DHT22;72373;50.562;8.498;2023-11-18T01:11:09;1.60;99.90
23081;DHT22;72373;50.562;8.498;2023-11-18T01:13:35;1.60;99.90
23081;DHT22;72373;50.562;8.498;2023-11-18T01:16:00;1.50;99.90
23081;DHT22;72373;50.562;8.498;2023-11-18T01:18:27;1.50;99.90
23081;DHT22;72373;50.562;8.498;2023-11-18T01:20:53;1.50;99.90
23081;DHT22;72373;50.562;8.498;2023-11-18T01:23:19;1.40;99.90
23081;DHT22;72373;50.562;8.498;2023-11-18T01:25:45;1.40;99.90
23081;DHT22;72373;50.562;8.498;2023-11-18T01:28:10;1.70;99.90
23081;DHT22;72373;50.562;8.498;2023-11-18T01:30:35;1.40;99.90
23081;DHT22;72373;50.562;8.498;2023-11-18T01:33:02;1.40;99.90
23081;DHT22;72373;50.562;8.498;2023-11-18T01:35:27;1.40;99.90
23081;DHT22;72373;50.562;8.498;2023-11-18T01:37:54;1.40;99.90
23081;DHT22;72373;50.562;8.498;2023-11-18T01:40:23;1.50;99.90
23081;DHT22;72373;50.562;8.498;2023-11-18T01:42:49;1.50;99.90
23081;DHT22;72373;50.562;8.498;2023-11-18T01:45:15;1.50;99.90
23081;DHT22;72373;50.562;8.498;2023-11-18T01:47:42;1.50;99.90
23081;DHT22;72373;50.562;8.498;2023-11-18T01:50:09;1.60;99.90
23081;DHT22;72373;50.562;8.498;2023-11-18T01:52:36;1.60;99.90
23081;DHT22;72373;50.562;8.498;2023-11-18T01:55:03;1.60;99.90
23081;DHT22;72373;50.562;8.498;2023-11-18T01:57:35;1.70;99.90
23081;DHT22;72373;50.562;8.498;2023-11-18T02:00:01;1.70;99.90
23081;DHT22;72373;50.562;8.498;2023-11-18T02:02:31;1.70;99.90
23081;DHT22;72373;50.562;8.498;2023-11-18T02:04:58;1.80;99.90
23081;DHT22;72373;50.562;8.498;2023-11-18T02:07:27;1.80;99.90
23081;DHT22;72373;50.562;8.498;2023-11-18T02:09:53;1.80;99.90
23081;DHT22;72373;50.562;8.498;2023-11-18T02:12:43;1.80;99.90
23081;DHT22;72373;50.562;8.498;2023-11-18T02:15:10;1.80;99.90
23081;DHT22;72373;50.562;8.498;2023-11-18T02:17:38;1.70;99.90
23081;DHT22;72373;50.562;8.498;2023-11-18T02:20:05;1.50;99.90
23081;DHT22;72373;50.562;8.498;2023-11-18T02:22:43;1.70;99.90
23081;DHT22;72373;50.562;8.498;2023-11-18T02:25:10;1.80;99.90
23081;DHT22;72373;50.562;8.498;2023-11-18T02:27:39;1.70;99.90
23081;DHT22;72373;50.562;8.498;2023-11-18T02:30:05;1.70;99.90
23081;DHT22;72373;50.562;8.498;2023-11-18T02:32:40;1.70;99.90
23081;DHT22;72373;50.562;8.498;2023-11-18T02:35:29;1.70;99.90
23081;DHT22;72373;50.562;8.498;2023-11-18T02:37:55;1.60;99.90
23081;DHT22;72373;50.562;8.498;2023-11-18T02:40:36;1.70;99.90
23081;DHT22;72373;50.562;8.498;2023-11-18T02:43:04;1.70;99.90
23081;DHT22;72373;50.562;8.498;2023-11-18T02:45:35;1.70;99.90
23081;DHT22;72373;50.562;8.498;2023-11-18T02:48:02;1.60;99.90
23081;DHT22;72373;50.562;8.498;2023-11-18T02:50:28;1.60;99.90
23081;DHT22;72373;50.562;8.498;2023-11-18T02:52:54;1.60;99.90
23081;DHT22;72373;50.562;8.498;2023-11-18T02:55:20;1.60;99.90
23081;DHT22;72373;50.562;8.498;2023-11-18T02:57:47;1.60;99.90
23081;DHT22;72373;50.562;8.498;2023-11-18T03:00:13;1.60;99.90
23081;DHT22;72373;50.562;8.498;2023-11-18T03:02:49;1.60;99.90
23081;DHT22;72373;50.562;8.498;2023-11-18T03:05:15;1.70;99.90
23081;DHT22;72373;50.562;8.498;2023-11-18T03:07:41;1.70;99.90
23081;DHT22;72373;50.562;8.498;2023-11-18T03:10:08;1.70;99.90
23081;DHT22;72373;50.562;8.498;2023-11-18T03:12:46;1.70;99.90
23081;DHT22;72373;50.562;8.498;2023-11-18T03:15:12;1.70;99.90
23081;DHT22;72373;50.562;8.498;2023-11-18T03:17:37;1.80;99.90
23081;DHT22;72373;50.562;8.498;2023-11-18T03:20:04;1.80;99.90
23081;DHT22;72373;50.562;8.498;2023-11-18T03:22:34;1.80;99.90
23081;DHT22;72373;50.562;8.498;2023-11-18T03:25:00;1.80;99.90
23081;DHT22;72373;50.562;8.498;2023-11-18T03:27:25;1.80;99.90
23081;DHT22;72373;50.562;8.498;2023-11-18T03:29:52;1.80;99.90
23081;DHT22;72373;50.562;8.498;2023-11-18T03:32:17;1.70;99.90
23081;DHT22;72373;50.562;8.498;2023-11-18T03:34:43;1.70;99.90
23081;DHT22;72373;50.562;8.498;2023-11-18T03:37:09;1.70;99.90
23081;DHT22;72373;50.562;8.498;2023-11-18T03:39:35;1.70;99.90
23081;DHT22;72373;50.562;8.498;2023-11-18T03:42:01;1.70;99.90
23081;DHT22;72373;50.562;8.498;2023-11-18T03:44:26;1.60;99.90
23081;DHT22;72373;50.562;8.498;2023-11-18T03:46:52;1.60;99.90
23081;DHT22;72373;50.562;8.498;2023-11-18T03:49:17;1.60;99.90
23081;DHT22;72373;50.562;8.498;2023-11-18T03:51:44;1.60;99.90
23081;DHT22;72373;50.562;8.498;2023-11-18T03:54:10;1.60;99.90
23081;DHT22;72373;50.562;8.498;2023-11-18T03:56:35;1.70;99.90
23081;DHT22;72373;50.562;8.498;2023-11-18T03:59:01;1.60;99.90
23081;DHT22;72373;50.562;8.498;2023-11-18T04:01:27;1.60;99.90
23081;DHT22;72373;50.562;8.498;2023-11-18T04:03:53;1.70;99.90
23081;DHT22;72373;50.562;8.498;2023-11-18T04:06:20;1.50;99.90
23081;DHT22;72373;50.562;8.498;2023-11-18T04:08:47;1.50;99.90
23081;DHT22;72373;50.562;8.498;2023-11-18T04:11:15;1.50;99.90
23081;DHT22;72373;50.562;8.498;2023-11-18T04:13:41;1.40;99.90
23081;DHT22;72373;50.562;8.498;2023-11-18T04:16:13;1.40;99.90
23081;DHT22;72373;50.562;8.498;2023-11-18T04:18:40;1.40;99.90
23081;DHT22;72373;50.562;8.498;2023-11-18T04:21:07;1.70;99.90
23081;DHT22;72373;50.562;8.498;2023-11-18T04:23:37;1.40;99.90
23081;DHT22;72373;50.562;8.498;2023-11-18T04:26:03;1.40;99.90
23081;DHT22;72373;50.562;8.498;2023-11-18T04:28:29;1.40;99.90
23081;DHT22;72373;50.562;8.498;2023-11-18T04:30:55;1.50;99.90
23081;DHT22;72373;50.562;8.498;2023-11-18T04:33:21;1.50;99.90
23081;DHT22;72373;50.562;8.498;2023-11-18T04:35:47;1.50;99.90
23081;DHT22;72373;50.562;8.498;2023-11-18T04:38:12;1.50;99.90
23081;DHT22;72373;50.562;8.498;2023-11-18T04:40:38;1.40;99.90
23081;DHT22;72373;50.562;8.498;2023-11-18T04:43:05;1.40;99.90
23081;DHT22;72373;50.562;8.498;2023-11-18T04:45:30;1.40;99.90
23081;DHT22;72373;50.562;8.498;2023-11-18T04:47:56;1.40;99.90
23081;DHT22;72373;50.562;8.498;2023-11-18T04:50:22;1.30;99.90
23081;DHT22;72373;50.562;8.498;2023-11-18T04:52:47;1.20;99.90
23081;DHT22;72373;50.562;8.498;2023-11-18T04:55:13;1.30;99.90
23081;DHT22;72373;50.562;8.498;2023-11-18T04:57:39;1.40;99.90
23081;DHT22;72373;50.562;8.498;2023-11-18T05:00:05;1.40;99.90
23081;DHT22;72373;50.562;8.498;2023-11-18T05:02:39;1.40;99.90
23081;DHT22;72373;50.562;8.498;2023-11-18T05:05:05;1.40;99.90
23081;DHT22;72373;50.562;8.498;2023-11-18T05:07:32;1.50;99.90
23081;DHT22;72373;50.562;8.498;2023-11-18T05:09:58;1.50;99.90
23081;DHT22;72373;50.562;8.498;2023-11-18T05:12:23;1.50;99.90
23081;DHT22;72373;50.562;8.498;2023-11-18T05:14:49;1.50;99.90
23081;DHT22;72373;50.562;8.498;2023-11-18T05:17:15;1.50;99.90
23081;DHT22;72373;50.562;8.498;2023-11-18T05:19:41;1.50;99.90
23081;DHT22;72373;50.562;8.498;2023-11-18T05:22:08;1.50;99.90
23081;DHT22;72373;50.562;8.498;2023-11-18T05:24:33;1.50;99.90
23081;DHT22;72373;50.562;8.498;2023-11-18T05:26:59;1.50;99.90
23081;DHT22;72373;50.562;8.498;2023-11-18T05:29:27;1.50;99.90
23081;DHT22;72373;50.562;8.498;2023-11-18T05:31:53;1.50;99.90
23081;DHT22;72373;50.562;8.498;2023-11-18T05:34:20;1.40;99.90
23081;DHT22;72373;50.562;8.498;2023-11-18T05:36:49;1.50;99.90
23081;DHT22;72373;50.562;8.498;2023-11-18T05:39:20;1.50;99.90
23081;DHT22;72373;50.562;8.498;2023-11-18T05:41:45;1.50;99.90
23081;DHT22;72373;50.562;8.498;2023-11-18T05:44:15;1.50;99.90
23081;DHT22;72373;50.562;8.498;2023-11-18T05:46:47;1.60;99.90
23081;DHT22;72373;50.562;8.498;2023-11-18T05:49:13;1.60;99.90
23081;DHT22;72373;50.562;8.498;2023-11-18T05:51:39;1.60;99.90
23081;DHT22;72373;50.562;8.498;2023-11-18T05:54:08;1.60;99.90
23081;DHT22;72373;50.562;8.498;2023-11-18T05:56:34;1.60;99.90
23081;DHT22;72373;50.562;8.498;2023-11-18T05:58:59;1.60;99.90
23081;DHT22;72373;50.562;8.498;2023-11-18T06:01:28;1.60;99.90
23081;DHT22;72373;50.562;8.498;2023-11-18T06:03:54;1.60;99.90
23081;DHT22;72373;50.562;8.498;2023-11-18T06:06:20;1.70;99.90
23081;DHT22;72373;50.562;8.498;2023-11-18T06:08:47;1.70;99.90
23081;DHT22;72373;50.562;8.498;2023-11-18T06:11:13;1.70;99.90
23081;DHT22;72373;50.562;8.498;2023-11-18T06:13:49;1.60;99.90
23081;DHT22;72373;50.562;8.498;2023-11-18T06:16:20;1.60;99.90
23081;DHT22;72373;50.562;8.498;2023-11-18T06:18:50;1.60;99.90
23081;DHT22;72373;50.562;8.498;2023-11-18T06:21:21;1.40;99.90
23081;DHT22;72373;50.562;8.498;2023-11-18T06:23:49;1.60;99.90
23081;DHT22;72373;50.562;8.498;2023-11-18T06:26:15;1.70;99.90
23081;DHT22;72373;50.562;8.498;2023-11-18T06:28:42;1.70;99.90
23081;DHT22;72373;50.562;8.498;2023-11-18T06:31:08;1.70;99.90
23081;DHT22;72373;50.562;8.498;2023-11-18T06:33:38;1.70;99.90
23081;DHT22;72373;50.562;8.498;2023-11-18T06:36:05;1.80;99.90
23081;DHT22;72373;50.562;8.498;2023-11-18T06:38:31;1.80;99.90
23081;DHT22;72373;50.562;8.498;2023-11-18T06:40:57;1.80;99.90
23081;DHT22;72373;50.562;8.498;2023-11-18T06:43:23;1.80;99.90
23081;DHT22;72373;50.562;8.498;2023-11-18T06:45:50;1.80;99.90
23081;DHT22;72373;50.562;8.498;2023-11-18T06:48:16;1.80;99.90
23081;DHT22;72373;50.562;8.498;2023-11-18T06:50:45;1.90;99.90
23081;DHT22;72373;50.562;8.498;2023-11-18T06:53:11;1.80;99.90
23081;DHT22;72373;50.562;8.498;2023-11-18T06:55:37;1.80;99.90
23081;DHT22;72373;50.562;8.498;2023-11-18T06:58:03;1.70;99.90
23081;DHT22;72373;50.562;8.498;2023-11-18T07:00:28;1.80;99.90
23081;DHT22;72373;50.562;8.498;2023-11-18T07:02:54;1.80;99.90
23081;DHT22;72373;50.562;8.498;2023-11-18T07:05:20;1.90;99.90
23081;DHT22;72373;50.562;8.498;2023-11-18T07:07:52;1.90;99.90
23081;DHT22;72373;50.562;8.498;2023-11-18T07:10:17;1.90;99.90
23081;DHT22;72373;50.562;8.498;2023-11-18T07:12:46;1.90;99.90
23081;DHT22;72373;50.562;8.498;2023-11-18T07:15:13;1.90;99.90
23081;DHT22;72373;50.562;8.498;2023-11-18T07:17:39;1.90;99.90
23081;DHT22;72373;50.562;8.498;2023-11-18T07:20:05;1.90;99.90
23081;DHT22;72373;50.562;8.498;2023-11-18T07:22:31;1.80;99.90
23081;DHT22;72373;50.562;8.498;2023-11-18T07:24:56;1.80;99.90
23081;DHT22;72373;50.562;8.498;2023-11-18T07:27:22;1.80;99.90
23081;DHT22;72373;50.562;8.498;2023-11-18T07:29:48;1.80;99.90
23081;DHT22;72373;50.562;8.498;2023-11-18T07:32:13;1.90;99.90
23081;DHT22;72373;50.562;8.498;2023-11-18T07:34:39;1.90;99.90
23081;DHT22;72373;50.562;8.498;2023-11-18T07:37:06;1.90;99.90
23081;DHT22;72373;50.562;8.498;2023-11-18T07:39:33;1.90;99.90
23081;DHT22;72373;50.562;8.498;2023-11-18T07:42:14;1.90;99.90
23081;DHT22;72373;50.562;8.498;2023-11-18T07:44:40;2.20;99.90
23081;DHT22;72373;50.562;8.498;2023-11-18T07:47:06;1.90;99.90
23081;DHT22;72373;50.562;8.498;2023-11-18T07:49:35;2.00;99.90
23081;DHT22;72373;50.562;8.498;2023-11-18T07:52:02;2.00;99.90
23081;DHT22;72373;50.562;8.498;2023-11-18T07:54:27;2.10;99.90
23081;DHT22;72373;50.562;8.498;2023-11-18T07:56:53;2.10;99.90
23081;DHT22;72373;50.562;8.498;2023-11-18T07:59:19;2.20;99.90
23081;DHT22;72373;50.562;8.498;2023-11-18T08:01:45;2.20;99.90
23081;DHT22;72373;50.562;8.498;2023-11-18T08:04:12;2.30;99.90
23081;DHT22;72373;50.562;8.498;2023-11-18T08:06:39;2.40;99.90
23081;DHT22;72373;50.562;8.498;2023-11-18T08:09:05;2.40;99.90
23081;DHT22;72373;50.562;8.498;2023-11-18T08:11:36;2.50;99.90
23081;DHT22;72373;50.562;8.498;2023-11-18T08:14:01;2.50;99.90
23081;DHT22;72373;50.562;8.498;2023-11-18T08:16:28;2.60;99.90
23081;DHT22;72373;50.562;8.498;2023-11-18T08:18:54;2.60;99.90
23081;DHT22;72373;50.562;8.498;2023-11-18T08:21:21;2.60;99.90
23081;DHT22;72373;50.562;8.498;2023-11-18T08:23:47;2.50;99.90
23081;DHT22;72373;50.562;8.498;2023-11-18T08:26:13;2.60;99.90
23081;DHT22;72373;50.562;8.498;2023-11-18T08:28:39;2.60;99.90
23081;DHT22;72373;50.562;8.498;2023-11-18T08:31:06;2.70;99.90
23081;DHT22;72373;50.562;8.498;2023-11-18T08:33:31;2.80;99.90
23081;DHT22;72373;50.562;8.498;2023-11-18T08:35:57;2.90;99.90
23081;DHT22;72373;50.562;8.498;2023-11-18T08:38:22;2.90;99.90
23081;DHT22;72373;50.562;8.498;2023-11-18T08:40:49;2.90;99.90
23081;DHT22;72373;50.562;8.498;2023-11-18T08:43:17;2.90;99.90
23081;DHT22;72373;50.562;8.498;2023-11-18T08:45:42;2.90;99.90
23081;DHT22;72373;50.562;8.498;2023-11-18T08:48:08;2.80;99.90
23081;DHT22;72373;50.562;8.498;2023-11-18T08:50:35;3.00;99.90
23081;DHT22;72373;50.562;8.498;2023-11-18T08:53:00;3.20;99.90
23081;DHT22;72373;50.562;8.498;2023-11-18T08:55:31;3.20;99.90
23081;DHT22;72373;50.562;8.498;2023-11-18T08:58:16;3.10;99.90
23081;DHT22;72373;50.562;8.498;2023-11-18T09:00:51;3.30;99.90
23081;DHT22;72373;50.562;8.498;2023-11-18T09:03:26;3.20;99.90
23081;DHT22;72373;50.562;8.498;2023-11-18T09:06:01;3.40;99.90
23081;DHT22;72373;50.562;8.498;2023-11-18T09:08:35;3.50;99.90
23081;DHT22;72373;50.562;8.498;2023-11-18T09:11:02;3.40;99.90
23081;DHT22;72373;50.562;8.498;2023-11-18T09:13:28;3.40;99.90
23081;DHT22;72373;50.562;8.498;2023-11-18T09:16:02;3.50;99.90
23081;DHT22;72373;50.562;8.498;2023-11-18T09:18:29;3.60;99.90
23081;DHT22;72373;50.562;8.498;2023-11-18T09:20:56;3.60;99.90
23081;DHT22;72373;50.562;8.498;2023-11-18T09:23:25;3.60;99.90
23081;DHT22;72373;50.562;8.498;2023-11-18T09:25:51;3.50;99.90
23081;DHT22;72373;50.562;8.498;2023-11-18T09:28:17;3.70;99.90
23081;DHT22;72373;50.562;8.498;2023-11-18T09:30:45;3.50;99.90
23081;DHT22;72373;50.562;8.498;2023-11-18T09:33:24;3.50;99.90
23081;DHT22;72373;50.562;8.498;2023-11-18T09:36:03;3.50;99.90
23081;DHT22;72373;50.562;8.498;2023-11-18T09:38:37;3.50;99.90
23081;DHT22;72373;50.562;8.498;2023-11-18T09:41:05;3.50;99.90
23081;DHT22;72373;50.562;8.498;2023-11-18T09:43:36;3.60;99.90
23081;DHT22;72373;50.562;8.498;2023-11-18T09:46:10;3.60;99.90
23081;DHT22;72373;50.562;8.498;2023-11-18T09:48:43;3.70;99.90
23081;DHT22;72373;50.562;8.498;2023-11-18T09:51:19;3.80;99.90
23081;DHT22;72373;50.562;8.498;2023-11-18T09:53:49;3.90;99.90
23081;DHT22;72373;50.562;8.498;2023-11-18T09:59:16;4.10;99.90
23081;DHT22;72373;50.562;8.498;2023-11-18T10:01:50;4.20;99.90
23081;DHT22;72373;50.562;8.498;2023-11-18T10:04:20;4.20;99.90
23081;DHT22;72373;50.562;8.498;2023-11-18T10:06:49;4.30;99.90
23081;DHT22;72373;50.562;8.498;2023-11-18T10:09:18;4.30;99.90
23081;DHT22;72373;50.562;8.498;2023-11-18T10:11:50;4.40;99.90
23081;DHT22;72373;50.562;8.498;2023-11-18T10:14:16;4.60;99.90
23081;DHT22;72373;50.562;8.498;2023-11-18T10:16:43;4.60;99.90
23081;DHT22;72373;50.562;8.498;2023-11-18T10:19:12;4.70;99.90
23081;DHT22;72373;50.562;8.498;2023-11-18T10:21:38;4.70;99.90
23081;DHT22;72373;50.562;8.498;2023-11-18T10:24:09;4.70;99.90
23081;DHT22;72373;50.562;8.498;2023-11-18T10:26:57;4.70;99.90
23081;DHT22;72373;50.562;8.498;2023-11-18T10:29:24;4.70;99.90
23081;DHT22;72373;50.562;8.498;2023-11-18T10:32:05;4.70;99.90
23081;DHT22;72373;50.562;8.498;2023-11-18T10:34:34;4.80;99.90
23081;DHT22;72373;50.562;8.498;2023-11-18T10:37:01;4.80;99.90
23081;DHT22;72373;50.562;8.498;2023-11-18T10:39:31;4.80;99.90
23081;DHT22;72373;50.562;8.498;2023-11-18T10:42:01;4.80;99.90
23081;DHT22;72373;50.562;8.498;2023-11-18T10:44:27;4.80;99.90
23081;DHT22;72373;50.562;8.498;2023-11-18T10:46:53;4.80;99.90
23081;DHT22;72373;50.562;8.498;2023-11-18T10:49:22;4.80;99.90
23081;DHT22;72373;50.562;8.498;2023-11-18T10:51:50;4.80;99.90
23081;DHT22;72373;50.562;8.498;2023-11-18T10:54:16;4.80;99.90
23081;DHT22;72373;50.562;8.498;2023-11-18T10:56:52;4.80;99.90
23081;DHT22;72373;50.562;8.498;2023-11-18T10:59:22;4.90;99.90
23081;DHT22;72373;50.562;8.498;2023-11-18T11:01:48;4.90;99.90
23081;DHT22;72373;50.562;8.498;2023-11-18T11:04:15;4.90;99.90
23081;DHT22;72373;50.562;8.498;2023-11-18T11:06:47;5.00;99.90
23081;DHT22;72373;50.562;8.498;2023-11-18T11:09:21;5.00;99.90
23081;DHT22;72373;50.562;8.498;2023-11-18T11:11:57;4.90;99.90
23081;DHT22;72373;50.562;8.498;2023-11-18T11:14:39;4.80;99.90
23081;DHT22;72373;50.562;8.498;2023-11-18T11:17:12;4.80;99.90
23081;DHT22;72373;50.562;8.498;2023-11-18T11:19:50;4.80;99.90
23081;DHT22;72373;50.562;8.498;2023-11-18T11:22:24;4.80;99.90
23081;DHT22;72373;50.562;8.498;2023-11-18T11:25:07;4.80;99.90
23081;DHT22;72373;50.562;8.498;2023-11-18T11:27:50;4.90;99.90
23081;DHT22;72373;50.562;8.498;2023-11-18T11:30:29;4.90;99.90
23081;DHT22;72373;50.562;8.498;2023-11-18T11:33:25;4.90;99.90
23081;DHT22;72373;50.562;8.498;2023-11-18T11:35:55;4.90;99.90
23081;DHT22;72373;50.562;8.498;2023-11-18T11:38:25;5.00;99.90
23081;DHT22;72373;50.562;8.498;2023-11-18T11:40:53;5.00;99.90
23081;DHT22;72373;50.562;8.498;2023-11-18T11:43:20;5.10;99.90
23081;DHT22;72373;50.562;8.498;2023-11-18T11:45:53;5.10;99.90
23081;DHT22;72373;50.562;8.498;2023-11-18T11:48:22;5.20;99.90
23081;DHT22;72373;50.562;8.498;2023-11-18T11:54:12;5.30;99.90
23081;DHT22;72373;50.562;8.498;2023-11-18T11:56:48;5.40;99.90
23081;DHT22;72373;50.562;8.498;2023-11-18T12:02:13;5.40;99.90
23081;DHT22;72373;50.562;8.498;2023-11-18T12:04:44;5.50;99.90
23081;DHT22;72373;50.562;8.498;2023-11-18T12:07:09;5.60;99.90
23081;DHT22;72373;50.562;8.498;2023-11-18T12:09:38;5.60;99.90
23081;DHT22;72373;50.562;8.498;2023-11-18T12:12:17;5.70;99.90
23081;DHT22;72373;50.562;8.498;2023-11-18T12:15:10;5.60;99.90
23081;DHT22;72373;50.562;8.498;2023-11-18T12:20:40;5.80;99.90
23081;DHT22;72373;50.562;8.498;2023-11-18T12:23:08;5.80;99.90
23081;DHT22;72373;50.562;8.498;2023-11-18T12:25:46;5.80;99.90
23081;DHT22;72373;50.562;8.498;2023-11-18T12:28:17;6.10;99.90
23081;DHT22;72373;50.562;8.498;2023-11-18T12:30:47;5.80;99.90
23081;DHT22;72373;50.562;8.498;2023-11-18T12:33:23;5.90;99.90
23081;DHT22;72373;50.562;8.498;2023-11-18T12:38:26;5.90;99.90
23081;DHT22;72373;50.562;8.498;2023-11-18T12:41:00;6.00;99.90
23081;DHT22;72373;50.562;8.498;2023-11-18T12:43:49;6.00;99.90
23081;DHT22;72373;50.562;8.498;2023-11-18T12:48:49;6.10;99.90
23081;DHT22;72373;50.562;8.498;2023-11-18T12:51:17;6.10;99.90
23081;DHT22;72373;50.562;8.498;2023-11-18T12:53:48;6.10;99.90
23081;DHT22;72373;50.562;8.498;2023-11-18T12:56:22;6.10;99.90
23081;DHT22;72373;50.562;8.498;2023-11-18T12:58:50;6.10;99.90
23081;DHT22;72373;50.562;8.498;2023-11-18T13:01:16;6.10;99.90
23081;DHT22;72373;50.562;8.498;2023-11-18T13:03:42;6.20;99.90
23081;DHT22;72373;50.562;8.498;2023-11-18T13:06:11;6.20;99.90
23081;DHT22;72373;50.562;8.498;2023-11-18T13:08:38;6.20;99.90
23081;DHT22;72373;50.562;8.498;2023-11-18T13:11:04;6.20;99.90
23081;DHT22;72373;50.562;8.498;2023-11-18T13:13:34;6.20;99.90
23081;DHT22;72373;50.562;8.498;2023-11-18T13:16:00;6.20;99.90
23081;DHT22;72373;50.562;8.498;2023-11-18T13:18:25;6.20;99.90
23081;DHT22;72373;50.562;8.498;2023-11-18T13:20:58;6.20;99.90
23081;DHT22;72373;50.562;8.498;2023-11-18T13:23:27;6.10;99.90
23081;DHT22;72373;50.562;8.498;2023-11-18T13:25:56;6.10;99.90
23081;DHT22;72373;50.562;8.498;2023-11-18T13:28:25;6.10;99.90
23081;DHT22;72373;50.562;8.498;2023-11-18T13:30:51;6.00;99.90
23081;DHT22;72373;50.562;8.498;2023-11-18T13:33:17;6.00;99.90
23081;DHT22;72373;50.562;8.498;2023-11-18T13:35:44;6.00;99.90
23081;DHT22;72373;50.562;8.498;2023-11-18T13:38:10;5.80;99.90
23081;DHT22;72373;50.562;8.498;2023-11-18T13:40:45;5.90;99.90
23081;DHT22;72373;50.562;8.498;2023-11-18T13:43:12;6.00;99.90
23081;DHT22;72373;50.562;8.498;2023-11-18T13:45:37;6.00;99.90
23081;DHT22;72373;50.562;8.498;2023-11-18T13:48:05;6.20;99.90
23081;DHT22;72373;50.562;8.498;2023-11-18T13:50:34;6.10;99.90
23081;DHT22;72373;50.562;8.498;2023-11-18T13:53:03;6.10;99.90
23081;DHT22;72373;50.562;8.498;2023-11-18T13:55:29;6.20;99.90
23081;DHT22;72373;50.562;8.498;2023-11-18T13:57:57;6.10;99.90
23081;DHT22;72373;50.562;8.498;2023-11-18T14:00:25;6.20;99.90
23081;DHT22;72373;50.562;8.498;2023-11-18T14:02:54;6.20;99.90
23081;DHT22;72373;50.562;8.498;2023-11-18T14:05:22;6.20;99.90
23081;DHT22;72373;50.562;8.498;2023-11-18T14:07:53;6.20;99.90
23081;DHT22;72373;50.562;8.498;2023-11-18T14:10:25;6.60;99.90
23081;DHT22;72373;50.562;8.498;2023-11-18T14:13:04;6.20;99.90
23081;DHT22;72373;50.562;8.498;2023-11-18T14:15:32;6.20;99.90
23081;DHT22;72373;50.562;8.498;2023-11-18T14:20:26;6.20;99.90
23081;DHT22;72373;50.562;8.498;2023-11-18T14:22:52;6.30;99.90
23081;DHT22;72373;50.562;8.498;2023-11-18T14:25:17;6.30;99.90
23081;DHT22;72373;50.562;8.498;2023-11-18T14:27:43;6.30;99.90
23081;DHT22;72373;50.562;8.498;2023-11-18T14:30:09;6.30;99.90
23081;DHT22;72373;50.562;8.498;2023-11-18T14:32:35;6.30;99.90
23081;DHT22;72373;50.562;8.498;2023-11-18T14:37:27;6.30;99.90
23081;DHT22;72373;50.562;8.498;2023-11-18T14:39:52;6.40;99.90
23081;DHT22;72373;50.562;8.498;2023-11-18T14:42:24;6.40;99.90
23081;DHT22;72373;50.562;8.498;2023-11-18T14:44:49;6.40;99.90
23081;DHT22;72373;50.562;8.498;2023-11-18T14:47:15;6.40;99.90
23081;DHT22;72373;50.562;8.498;2023-11-18T14:49:42;6.40;99.90
23081;DHT22;72373;50.562;8.498;2023-11-18T14:52:07;6.30;99.90
23081;DHT22;72373;50.562;8.498;2023-11-18T14:54:34;6.40;99.90
23081;DHT22;72373;50.562;8.498;2023-11-18T14:57:01;6.40;99.90
23081;DHT22;72373;50.562;8.498;2023-11-18T14:59:28;6.50;99.90
23081;DHT22;72373;50.562;8.498;2023-11-18T15:01:54;6.50;99.90
23081;DHT22;72373;50.562;8.498;2023-11-18T15:04:23;6.50;99.90
23081;DHT22;72373;50.562;8.498;2023-11-18T15:06:49;6.60;99.90
23081;DHT22;72373;50.562;8.498;2023-11-18T15:09:18;6.70;99.90
23081;DHT22;72373;50.562;8.498;2023-11-18T15:11:44;6.70;99.90
23081;DHT22;72373;50.562;8.498;2023-11-18T15:14:09;6.70;99.90
23081;DHT22;72373;50.562;8.498;2023-11-18T15:16:37;6.70;99.90
23081;DHT22;72373;50.562;8.498;2023-11-18T15:19:03;6.70;99.90
23081;DHT22;72373;50.562;8.498;2023-11-18T15:23:55;6.70;99.90
23081;DHT22;72373;50.562;8.498;2023-11-18T15:28:52;6.70;99.90
23081;DHT22;72373;50.562;8.498;2023-11-18T15:31:18;6.80;99.90
23081;DHT22;72373;50.562;8.498;2023-11-18T15:33:45;6.80;99.90
23081;DHT22;72373;50.562;8.498;2023-11-18T15:36:12;6.80;99.90
23081;DHT22;72373;50.562;8.498;2023-11-18T15:38:37;7.00;99.90
23081;DHT22;72373;50.562;8.498;2023-11-18T15:41:03;6.90;99.90
23081;DHT22;72373;50.562;8.498;2023-11-18T15:43:29;6.80;99.90
23081;DHT22;72373;50.562;8.498;2023-11-18T15:45:55;7.20;99.90
23081;DHT22;72373;50.562;8.498;2023-11-18T15:50:49;6.80;99.90
23081;DHT22;72373;50.562;8.498;2023-11-18T15:53:15;6.80;99.90
23081;DHT22;72373;50.562;8.498;2023-11-18T15:55:40;6.80;99.90
23081;DHT22;72373;50.562;8.498;2023-11-18T16:00:35;6.80;99.90
23081;DHT22;72373;50.562;8.498;2023-11-18T16:03:02;6.80;99.90
23081;DHT22;72373;50.562;8.498;2023-11-18T16:05:30;6.80;99.90
23081;DHT22;72373;50.562;8.498;2023-11-18T16:07:59;6.80;99.90
23081;DHT22;72373;50.562;8.498;2023-11-18T16:10:25;6.80;99.90
23081;DHT22;72373;50.562;8.498;2023-11-18T16:12:59;6.90;99.90
23081;DHT22;72373;50.562;8.498;2023-11-18T16:15:27;6.80;99.90
23081;DHT22;72373;50.562;8.498;2023-11-18T16:17:57;6.80;99.90
23081;DHT22;72373;50.562;8.498;2023-11-18T16:20:25;6.90;99.90
23081;DHT22;72373;50.562;8.498;2023-11-18T16:22:52;6.90;99.90